AFL1702 UUEE-UHWW
Flight info
| Callsign | AFL1702 |
|---|---|
| Flight time | N/A |
| Altitude | 35000 |
| Route | RILPO3H RILPO T753 TUNOB T791 MOVUN P149 SONIB N174 KEDOR T541 TURMA/K0874F370 T541 LEBNA L168 IVADA DCT HAB/K0876F380 DCT ARDEL B355 BG G714 DAGES DAGES2N |
| Aircraft | B77W/H-SDE1E2E3FGHIJ2J3J4J5M1RWXY/LB1D1 |
Departure
| Time | N/A |
|---|---|
| Airport | Sheremetyevo International Airport (UUEE) |
Arrival
| Time | 2026-05-05 06:12 |
|---|---|
| Airport | Vladivostok International Airport (UHWW) |
| Time | Latitude | Longitude | Altitude | Speed | Heading |
|---|---|---|---|---|---|
| 2026-05-05 05:49 | 44.66512 | 133.87996 | 34262 ft | 453 kts | 219° |
| 2026-05-05 05:49 | 44.63792 | 133.85776 | 33357 ft | 456 kts | 219° |
| 2026-05-05 05:49 | 44.61057 | 133.83550 | 32551 ft | 456 kts | 219° |
| 2026-05-05 05:49 | 44.58316 | 133.81321 | 31719 ft | 458 kts | 219° |
| 2026-05-05 05:50 | 44.55566 | 133.79087 | 30857 ft | 459 kts | 218° |
| 2026-05-05 05:50 | 44.52817 | 133.76857 | 30113 ft | 457 kts | 218° |
| 2026-05-05 05:50 | 44.50099 | 133.74661 | 29696 ft | 448 kts | 218° |
| 2026-05-05 05:50 | 44.47426 | 133.72501 | 29212 ft | 441 kts | 218° |
| 2026-05-05 05:51 | 44.44793 | 133.70374 | 28685 ft | 435 kts | 218° |
| 2026-05-05 05:51 | 44.42192 | 133.68273 | 28160 ft | 430 kts | 219° |
| 2026-05-05 05:51 | 44.39612 | 133.66190 | 27638 ft | 432 kts | 218° |
| 2026-05-05 05:51 | 44.36977 | 133.64057 | 27095 ft | 443 kts | 218° |
| 2026-05-05 05:52 | 44.34327 | 133.61922 | 26530 ft | 439 kts | 218° |
| 2026-05-05 05:52 | 44.31695 | 133.59809 | 25987 ft | 433 kts | 218° |
| 2026-05-05 05:52 | 44.29106 | 133.57731 | 25434 ft | 428 kts | 218° |
| 2026-05-05 05:52 | 44.26548 | 133.55679 | 24866 ft | 422 kts | 218° |
| 2026-05-05 05:53 | 44.24028 | 133.53659 | 24308 ft | 417 kts | 218° |
| 2026-05-05 05:53 | 44.21536 | 133.51664 | 23759 ft | 411 kts | 218° |
| 2026-05-05 05:53 | 44.19081 | 133.49700 | 23227 ft | 406 kts | 218° |
| 2026-05-05 05:53 | 44.16651 | 133.47756 | 22692 ft | 401 kts | 218° |
| 2026-05-05 05:54 | 44.14253 | 133.45841 | 22144 ft | 397 kts | 218° |
| 2026-05-05 05:54 | 44.11882 | 133.43947 | 21598 ft | 393 kts | 218° |
| 2026-05-05 05:54 | 44.09529 | 133.42071 | 21064 ft | 388 kts | 218° |
| 2026-05-05 05:54 | 44.07205 | 133.40219 | 20516 ft | 384 kts | 218° |
| 2026-05-05 05:55 | 44.04896 | 133.38381 | 19972 ft | 380 kts | 218° |
| 2026-05-05 05:55 | 44.02618 | 133.36569 | 19451 ft | 376 kts | 217° |
| 2026-05-05 05:55 | 44.00363 | 133.34777 | 18919 ft | 372 kts | 217° |
| 2026-05-05 05:55 | 43.98131 | 133.33005 | 18412 ft | 369 kts | 216° |
| 2026-05-05 05:56 | 43.95916 | 133.31248 | 17869 ft | 366 kts | 216° |
| 2026-05-05 05:56 | 43.93721 | 133.29508 | 17331 ft | 363 kts | 216° |
| 2026-05-05 05:56 | 43.91539 | 133.27779 | 16798 ft | 361 kts | 216° |
| 2026-05-05 05:56 | 43.89416 | 133.25984 | 16263 ft | 353 kts | 223° |
| 2026-05-05 05:57 | 43.87715 | 133.23648 | 15733 ft | 340 kts | 237° |
| 2026-05-05 05:57 | 43.86343 | 133.21018 | 15192 ft | 336 kts | 239° |
| 2026-05-05 05:57 | 43.85031 | 133.18369 | 14618 ft | 334 kts | 240° |
| 2026-05-05 05:57 | 43.83733 | 133.15723 | 14063 ft | 332 kts | 240° |
| 2026-05-05 05:58 | 43.82448 | 133.13101 | 13543 ft | 329 kts | 240° |
| 2026-05-05 05:58 | 43.81170 | 133.10495 | 13000 ft | 327 kts | 240° |
| 2026-05-05 05:58 | 43.79903 | 133.07910 | 12463 ft | 324 kts | 240° |
| 2026-05-05 05:58 | 43.78645 | 133.05349 | 11935 ft | 322 kts | 239° |
| 2026-05-05 05:59 | 43.77394 | 133.02805 | 11416 ft | 320 kts | 240° |
| 2026-05-05 05:59 | 43.76152 | 133.00280 | 10881 ft | 317 kts | 239° |
| 2026-05-05 05:59 | 43.74921 | 132.97779 | 10402 ft | 313 kts | 239° |
| 2026-05-05 05:59 | 43.73722 | 132.95349 | 10283 ft | 298 kts | 239° |
| 2026-05-05 06:00 | 43.72571 | 132.93018 | 10193 ft | 284 kts | 239° |
| 2026-05-05 06:00 | 43.71480 | 132.90810 | 10070 ft | 272 kts | 239° |
| 2026-05-05 06:00 | 43.70434 | 132.88689 | 9906 ft | 261 kts | 239° |
| 2026-05-05 06:00 | 43.69431 | 132.86660 | 9777 ft | 251 kts | 240° |
| 2026-05-05 06:01 | 43.68468 | 132.84712 | 9631 ft | 242 kts | 240° |
| 2026-05-05 06:01 | 43.67532 | 132.82819 | 9438 ft | 235 kts | 239° |
| 2026-05-05 06:01 | 43.66618 | 132.80973 | 9207 ft | 232 kts | 240° |
| 2026-05-05 06:01 | 43.65719 | 132.79142 | 8880 ft | 230 kts | 242° |
| 2026-05-05 06:02 | 43.64939 | 132.77210 | 8641 ft | 234 kts | 245° |
| 2026-05-05 06:02 | 43.64156 | 132.75232 | 8398 ft | 235 kts | 244° |
| 2026-05-05 06:02 | 43.63362 | 132.73281 | 8151 ft | 232 kts | 244° |
| 2026-05-05 06:02 | 43.62571 | 132.71352 | 7894 ft | 232 kts | 243° |
| 2026-05-05 06:03 | 43.61777 | 132.69420 | 7650 ft | 232 kts | 243° |
| 2026-05-05 06:03 | 43.60985 | 132.67495 | 7391 ft | 231 kts | 243° |
| 2026-05-05 06:03 | 43.60187 | 132.65555 | 7136 ft | 231 kts | 243° |
| 2026-05-05 06:03 | 43.59395 | 132.63632 | 6884 ft | 231 kts | 243° |
| 2026-05-05 06:04 | 43.58600 | 132.61702 | 6634 ft | 231 kts | 243° |
| 2026-05-05 06:04 | 43.57809 | 132.59785 | 6378 ft | 231 kts | 243° |
| 2026-05-05 06:04 | 43.57017 | 132.57865 | 6128 ft | 231 kts | 243° |
| 2026-05-05 06:04 | 43.56223 | 132.55942 | 5879 ft | 230 kts | 242° |
| 2026-05-05 06:05 | 43.55433 | 132.54026 | 5616 ft | 230 kts | 242° |
| 2026-05-05 06:05 | 43.54644 | 132.52115 | 5389 ft | 228 kts | 242° |
| 2026-05-05 06:05 | 43.53875 | 132.50257 | 5260 ft | 219 kts | 242° |
| 2026-05-05 06:05 | 43.53136 | 132.48462 | 5100 ft | 212 kts | 242° |
| 2026-05-05 06:06 | 43.52437 | 132.46700 | 4851 ft | 208 kts | 243° |
| 2026-05-05 06:06 | 43.51770 | 132.44977 | 4595 ft | 199 kts | 243° |
| 2026-05-05 06:06 | 43.51128 | 132.43344 | 4344 ft | 189 kts | 242° |
| 2026-05-05 06:06 | 43.50507 | 132.41789 | 4111 ft | 181 kts | 242° |
| 2026-05-05 06:07 | 43.49910 | 132.40305 | 3870 ft | 174 kts | 241° |
| 2026-05-05 06:07 | 43.49330 | 132.38867 | 3657 ft | 168 kts | 241° |
| 2026-05-05 06:07 | 43.48776 | 132.37491 | 3448 ft | 162 kts | 241° |
| 2026-05-05 06:07 | 43.48240 | 132.36159 | 3241 ft | 157 kts | 241° |
| 2026-05-05 06:08 | 43.47720 | 132.34866 | 3036 ft | 153 kts | 240° |
| 2026-05-05 06:08 | 43.47203 | 132.33567 | 2832 ft | 157 kts | 240° |
| 2026-05-05 06:08 | 43.46679 | 132.32259 | 2621 ft | 154 kts | 239° |
| 2026-05-05 06:08 | 43.46165 | 132.30985 | 2401 ft | 150 kts | 239° |
| 2026-05-05 06:09 | 43.45665 | 132.29743 | 2204 ft | 146 kts | 238° |
| 2026-05-05 06:09 | 43.45181 | 132.28542 | 2008 ft | 142 kts | 238° |
| 2026-05-05 06:09 | 43.44704 | 132.27359 | 1818 ft | 141 kts | 237° |
| 2026-05-05 06:09 | 43.44226 | 132.26177 | 1624 ft | 140 kts | 237° |
| 2026-05-05 06:10 | 43.43775 | 132.25056 | 1438 ft | 131 kts | 237° |
| 2026-05-05 06:10 | 43.43335 | 132.23968 | 1254 ft | 129 kts | 237° |
| 2026-05-05 06:10 | 43.42899 | 132.22893 | 1076 ft | 129 kts | 237° |
| 2026-05-05 06:10 | 43.42458 | 132.21815 | 891 ft | 130 kts | 238° |
| 2026-05-05 06:11 | 43.42026 | 132.20715 | 712 ft | 131 kts | 238° |
| 2026-05-05 06:11 | 43.41579 | 132.19609 | 520 ft | 133 kts | 237° |
| 2026-05-05 06:11 | 43.41128 | 132.18501 | 346 ft | 134 kts | 238° |
| 2026-05-05 06:11 | 43.40671 | 132.17376 | 168 ft | 135 kts | 238° |
| 2026-05-05 06:12 | 43.40217 | 132.16259 | 56 ft | 127 kts | 240° |
| 2026-05-05 06:12 | 43.39857 | 132.15368 | 66 ft | 81 kts | 240° |
| 2026-05-05 06:12 | 43.39622 | 132.14786 | 60 ft | 60 kts | 240° |
| 2026-05-05 06:12 | 43.39455 | 132.14369 | 54 ft | 34 kts | 241° |
| 2026-05-05 06:13 | 43.39395 | 132.14223 | 53 ft | 12 kts | 236° |
| 2026-05-05 06:13 | 43.39341 | 132.14181 | 53 ft | 7 kts | 168° |
| 2026-05-05 06:13 | 43.39298 | 132.14213 | 55 ft | 6 kts | 150° |
| 2026-05-05 06:13 | 43.39267 | 132.14236 | 58 ft | 5 kts | 150° |
| 2026-05-05 06:14 | 43.39226 | 132.14267 | 60 ft | 7 kts | 150° |
| 2026-05-05 06:14 | 43.39197 | 132.14305 | 60 ft | 4 kts | 105° |
| 2026-05-05 06:14 | 43.39211 | 132.14363 | 61 ft | 8 kts | 63° |
| 2026-05-05 06:14 | 43.39250 | 132.14461 | 62 ft | 15 kts | 61° |
| 2026-05-05 06:15 | 43.39313 | 132.14618 | 64 ft | 22 kts | 61° |
| 2026-05-05 06:15 | 43.39397 | 132.14827 | 67 ft | 26 kts | 61° |
| 2026-05-05 06:15 | 43.39489 | 132.15056 | 69 ft | 28 kts | 60° |
| 2026-05-05 06:15 | 43.39583 | 132.15288 | 72 ft | 26 kts | 60° |
| 2026-05-05 06:16 | 43.39670 | 132.15499 | 74 ft | 22 kts | 61° |
| 2026-05-05 06:16 | 43.39737 | 132.15666 | 75 ft | 18 kts | 61° |
| 2026-05-05 06:16 | 43.39798 | 132.15819 | 73 ft | 18 kts | 61° |
| 2026-05-05 06:16 | 43.39862 | 132.15978 | 70 ft | 19 kts | 60° |
| 2026-05-05 06:17 | 43.39899 | 132.16075 | 67 ft | 8 kts | 77° |
| 2026-05-05 06:17 | 43.39864 | 132.16130 | 68 ft | 10 kts | 151° |
| 2026-05-05 06:17 | 43.39787 | 132.16186 | 71 ft | 10 kts | 152° |
| 2026-05-05 06:17 | 43.39748 | 132.16228 | 72 ft | 5 kts | 114° |
| 2026-05-05 06:18 | 43.39732 | 132.16281 | 71 ft | 6 kts | 133° |
| 2026-05-05 06:18 | 43.39699 | 132.16311 | 72 ft | 4 kts | 150° |
| 2026-05-05 06:18 | 43.39686 | 132.16321 | 72 ft | 0 kts | 151° |
| 2026-05-05 06:18 | 43.39684 | 132.16322 | 72 ft | 0 kts | 151° |
| 2026-05-05 06:19 | 43.39681 | 132.16324 | 72 ft | 0 kts | 151° |